Terminal Aerodrome Forecast
Issued by NWS Charleston, WV

Home | Current Version | Previous Version | Text Only | Print | Product List | Glossary On
Versions: 1 2 3 4 5 6 7 8 9 10 11 12 13 14 15 16 17 18 19 20 21 22 23 24 25 26 27 28
632
FTUS41 KRLX 231126
TAFEKN
TAF
KEKN 231126Z 2312/2412 11010KT 5SM -RA OVC026
     FM231400 12011G17KT 4SM -RA OVC014
     FM232100 07010KT 4SM -RA OVC014
     FM232300 04008KT P6SM OVC013
     FM240700 33006KT 1 1/2SM -RASN OVC007=

USA.gov is the U.S. government's official web portal to all federal, state and local government web resources and services.